Terminal Aerodrome Forecast
Issued by NWS Sterling, VA

Home | Current Version | Previous Version | Text Only | Print | Product List | Glossary On
Versions: 1 2 3 4 5 6 7 8 9 10 11 12 13 14
550
FTUS41 KLWX 301141
TAFCHO
TAF
KCHO 301141Z 3012/0112 18009KT P6SM SCT110
     FM301700 20012KT P6SM FEW050 SCT250
     FM010000 18008KT P6SM SCT040
     FM010800 19008KT 4SM BR BKN025=

USA.gov is the U.S. government's official web portal to all federal, state and local government web resources and services.